sensor_id;sensor_type;location;lat;lon;timestamp;P1;durP1;ratioP1;P2;durP2;ratioP2
27225;SDS011;14732;51.074;3.788;2023-04-03T00:01:12;15.45;;;11.40;;
27225;SDS011;14732;51.074;3.788;2023-04-03T00:03:38;18.58;;;11.88;;
27225;SDS011;14732;51.074;3.788;2023-04-03T00:06:04;18.00;;;12.68;;
27225;SDS011;14732;51.074;3.788;2023-04-03T00:08:35;18.85;;;11.82;;
27225;SDS011;14732;51.074;3.788;2023-04-03T00:11:01;17.73;;;10.65;;
27225;SDS011;14732;51.074;3.788;2023-04-03T00:13:28;15.60;;;11.43;;
27225;SDS011;14732;51.074;3.788;2023-04-03T00:15:55;17.15;;;11.18;;
27225;SDS011;14732;51.074;3.788;2023-04-03T00:18:20;18.55;;;10.88;;
27225;SDS011;14732;51.074;3.788;2023-04-03T00:20:47;18.70;;;10.52;;
27225;SDS011;14732;51.074;3.788;2023-04-03T00:23:13;14.27;;;10.55;;
27225;SDS011;14732;51.074;3.788;2023-04-03T00:25:39;17.90;;;10.40;;
27225;SDS011;14732;51.074;3.788;2023-04-03T00:28:04;16.02;;;10.63;;
27225;SDS011;14732;51.074;3.788;2023-04-03T00:30:30;13.63;;;10.38;;
27225;SDS011;14732;51.074;3.788;2023-04-03T00:32:56;16.92;;;11.38;;
27225;SDS011;14732;51.074;3.788;2023-04-03T00:35:22;14.95;;;9.60;;
27225;SDS011;14732;51.074;3.788;2023-04-03T00:37:53;16.48;;;9.43;;
27225;SDS011;14732;51.074;3.788;2023-04-03T00:40:21;16.80;;;9.43;;
27225;SDS011;14732;51.074;3.788;2023-04-03T00:42:50;16.88;;;10.10;;
27225;SDS011;14732;51.074;3.788;2023-04-03T00:45:31;12.23;;;9.73;;
27225;SDS011;14732;51.074;3.788;2023-04-03T00:48:03;16.15;;;9.57;;
27225;SDS011;14732;51.074;3.788;2023-04-03T00:50:31;11.73;;;9.20;;
27225;SDS011;14732;51.074;3.788;2023-04-03T00:53:00;14.50;;;8.50;;
27225;SDS011;14732;51.074;3.788;2023-04-03T00:55:26;16.92;;;9.68;;
27225;SDS011;14732;51.074;3.788;2023-04-03T00:57:53;12.77;;;8.52;;
27225;SDS011;14732;51.074;3.788;2023-04-03T01:00:21;13.05;;;9.25;;
27225;SDS011;14732;51.074;3.788;2023-04-03T01:02:49;13.77;;;9.30;;
27225;SDS011;14732;51.074;3.788;2023-04-03T01:05:16;11.15;;;8.65;;
27225;SDS011;14732;51.074;3.788;2023-04-03T01:07:44;11.05;;;8.52;;
27225;SDS011;14732;51.074;3.788;2023-04-03T01:10:11;14.90;;;9.10;;
27225;SDS011;14732;51.074;3.788;2023-04-03T01:12:40;12.05;;;8.48;;
27225;SDS011;14732;51.074;3.788;2023-04-03T01:15:15;11.65;;;8.38;;
27225;SDS011;14732;51.074;3.788;2023-04-03T01:17:51;12.15;;;8.85;;
27225;SDS011;14732;51.074;3.788;2023-04-03T01:25:30;14.25;;;9.02;;
27225;SDS011;14732;51.074;3.788;2023-04-03T01:27:56;17.30;;;9.18;;
27225;SDS011;14732;51.074;3.788;2023-04-03T01:30:23;12.40;;;9.27;;
27225;SDS011;14732;51.074;3.788;2023-04-03T01:32:55;12.32;;;8.32;;
27225;SDS011;14732;51.074;3.788;2023-04-03T01:35:21;13.43;;;9.00;;
27225;SDS011;14732;51.074;3.788;2023-04-03T01:37:47;17.08;;;9.07;;
27225;SDS011;14732;51.074;3.788;2023-04-03T01:40:13;13.90;;;9.38;;
27225;SDS011;14732;51.074;3.788;2023-04-03T01:42:38;12.73;;;8.40;;
27225;SDS011;14732;51.074;3.788;2023-04-03T01:45:04;12.65;;;8.85;;
27225;SDS011;14732;51.074;3.788;2023-04-03T01:47:30;11.57;;;8.13;;
27225;SDS011;14732;51.074;3.788;2023-04-03T01:49:56;12.55;;;7.85;;
27225;SDS011;14732;51.074;3.788;2023-04-03T01:52:22;12.20;;;8.73;;
27225;SDS011;14732;51.074;3.788;2023-04-03T01:54:47;14.32;;;8.10;;
27225;SDS011;14732;51.074;3.788;2023-04-03T01:57:13;14.50;;;7.97;;
27225;SDS011;14732;51.074;3.788;2023-04-03T01:59:40;13.68;;;8.48;;
27225;SDS011;14732;51.074;3.788;2023-04-03T02:02:06;13.25;;;8.02;;
27225;SDS011;14732;51.074;3.788;2023-04-03T02:04:32;11.77;;;7.35;;
27225;SDS011;14732;51.074;3.788;2023-04-03T02:06:58;13.13;;;8.27;;
27225;SDS011;14732;51.074;3.788;2023-04-03T02:09:23;12.70;;;7.75;;
27225;SDS011;14732;51.074;3.788;2023-04-03T02:11:49;15.68;;;7.78;;
27225;SDS011;14732;51.074;3.788;2023-04-03T02:14:15;13.30;;;8.43;;
27225;SDS011;14732;51.074;3.788;2023-04-03T02:16:40;13.52;;;7.97;;
27225;SDS011;14732;51.074;3.788;2023-04-03T02:19:06;14.48;;;7.82;;
27225;SDS011;14732;51.074;3.788;2023-04-03T02:21:32;10.40;;;7.38;;
27225;SDS011;14732;51.074;3.788;2023-04-03T02:23:58;11.70;;;7.82;;
27225;SDS011;14732;51.074;3.788;2023-04-03T02:26:23;16.42;;;8.52;;
27225;SDS011;14732;51.074;3.788;2023-04-03T02:28:50;11.82;;;7.82;;
27225;SDS011;14732;51.074;3.788;2023-04-03T02:31:16;11.02;;;7.15;;
27225;SDS011;14732;51.074;3.788;2023-04-03T02:33:42;11.43;;;6.97;;
27225;SDS011;14732;51.074;3.788;2023-04-03T02:36:08;9.20;;;7.03;;
27225;SDS011;14732;51.074;3.788;2023-04-03T02:38:34;15.65;;;8.18;;
27225;SDS011;14732;51.074;3.788;2023-04-03T02:41:00;12.95;;;8.20;;
27225;SDS011;14732;51.074;3.788;2023-04-03T02:43:36;13.38;;;7.93;;
27225;SDS011;14732;51.074;3.788;2023-04-03T02:46:02;13.60;;;7.40;;
27225;SDS011;14732;51.074;3.788;2023-04-03T02:48:28;11.63;;;8.00;;
27225;SDS011;14732;51.074;3.788;2023-04-03T02:50:54;11.82;;;7.82;;
27225;SDS011;14732;51.074;3.788;2023-04-03T02:53:20;8.80;;;6.82;;
27225;SDS011;14732;51.074;3.788;2023-04-03T02:55:46;11.98;;;7.82;;
27225;SDS011;14732;51.074;3.788;2023-04-03T02:58:12;14.10;;;7.53;;
27225;SDS011;14732;51.074;3.788;2023-04-03T03:00:37;9.73;;;7.22;;
27225;SDS011;14732;51.074;3.788;2023-04-03T03:03:03;15.23;;;8.40;;
27225;SDS011;14732;51.074;3.788;2023-04-03T03:05:29;10.02;;;7.18;;
27225;SDS011;14732;51.074;3.788;2023-04-03T03:07:55;11.77;;;7.53;;
27225;SDS011;14732;51.074;3.788;2023-04-03T03:10:21;11.98;;;7.38;;
27225;SDS011;14732;51.074;3.788;2023-04-03T03:12:47;8.82;;;6.97;;
27225;SDS011;14732;51.074;3.788;2023-04-03T03:15:13;10.43;;;7.32;;
27225;SDS011;14732;51.074;3.788;2023-04-03T03:17:40;12.80;;;7.72;;
27225;SDS011;14732;51.074;3.788;2023-04-03T03:20:06;10.05;;;7.43;;
27225;SDS011;14732;51.074;3.788;2023-04-03T03:22:33;15.05;;;8.23;;
27225;SDS011;14732;51.074;3.788;2023-04-03T03:24:59;12.88;;;8.45;;
27225;SDS011;14732;51.074;3.788;2023-04-03T03:27:26;14.18;;;8.10;;
27225;SDS011;14732;51.074;3.788;2023-04-03T03:29:51;13.38;;;8.98;;
27225;SDS011;14732;51.074;3.788;2023-04-03T03:32:17;12.93;;;8.30;;
27225;SDS011;14732;51.074;3.788;2023-04-03T03:34:43;13.38;;;8.90;;
27225;SDS011;14732;51.074;3.788;2023-04-03T03:37:08;12.40;;;8.50;;
27225;SDS011;14732;51.074;3.788;2023-04-03T03:39:34;15.88;;;8.70;;
27225;SDS011;14732;51.074;3.788;2023-04-03T03:42:00;10.48;;;8.05;;
27225;SDS011;14732;51.074;3.788;2023-04-03T03:44:25;18.50;;;8.48;;
27225;SDS011;14732;51.074;3.788;2023-04-03T03:46:53;13.90;;;8.32;;
27225;SDS011;14732;51.074;3.788;2023-04-03T03:49:20;12.00;;;7.82;;
27225;SDS011;14732;51.074;3.788;2023-04-03T03:51:46;12.82;;;8.05;;
27225;SDS011;14732;51.074;3.788;2023-04-03T03:54:12;13.07;;;8.55;;
27225;SDS011;14732;51.074;3.788;2023-04-03T03:56:38;16.33;;;8.80;;
27225;SDS011;14732;51.074;3.788;2023-04-03T03:59:03;11.38;;;7.93;;
27225;SDS011;14732;51.074;3.788;2023-04-03T04:01:29;13.40;;;9.07;;
27225;SDS011;14732;51.074;3.788;2023-04-03T04:03:55;12.80;;;8.40;;
27225;SDS011;14732;51.074;3.788;2023-04-03T04:06:21;12.50;;;8.18;;
27225;SDS011;14732;51.074;3.788;2023-04-03T04:08:47;16.15;;;8.80;;
27225;SDS011;14732;51.074;3.788;2023-04-03T04:11:12;14.65;;;9.02;;
27225;SDS011;14732;51.074;3.788;2023-04-03T04:13:38;11.95;;;7.68;;
27225;SDS011;14732;51.074;3.788;2023-04-03T04:16:04;13.88;;;8.45;;
27225;SDS011;14732;51.074;3.788;2023-04-03T04:18:30;16.80;;;9.70;;
27225;SDS011;14732;51.074;3.788;2023-04-03T04:20:56;13.27;;;7.78;;
27225;SDS011;14732;51.074;3.788;2023-04-03T04:23:22;12.45;;;8.07;;
27225;SDS011;14732;51.074;3.788;2023-04-03T04:25:48;13.35;;;7.93;;
27225;SDS011;14732;51.074;3.788;2023-04-03T04:28:15;12.38;;;8.15;;
27225;SDS011;14732;51.074;3.788;2023-04-03T04:30:41;13.00;;;7.57;;
27225;SDS011;14732;51.074;3.788;2023-04-03T04:33:07;14.13;;;8.23;;
27225;SDS011;14732;51.074;3.788;2023-04-03T04:35:33;12.07;;;8.15;;
27225;SDS011;14732;51.074;3.788;2023-04-03T04:37:59;13.45;;;8.25;;
27225;SDS011;14732;51.074;3.788;2023-04-03T04:40:25;14.27;;;9.02;;
27225;SDS011;14732;51.074;3.788;2023-04-03T04:42:51;10.88;;;8.00;;
27225;SDS011;14732;51.074;3.788;2023-04-03T04:45:17;13.70;;;8.63;;
27225;SDS011;14732;51.074;3.788;2023-04-03T04:47:43;12.57;;;7.75;;
27225;SDS011;14732;51.074;3.788;2023-04-03T04:50:08;11.80;;;7.93;;
27225;SDS011;14732;51.074;3.788;2023-04-03T04:52:34;18.38;;;9.20;;
27225;SDS011;14732;51.074;3.788;2023-04-03T04:55:00;14.48;;;9.88;;
27225;SDS011;14732;51.074;3.788;2023-04-03T04:57:26;14.13;;;9.57;;
27225;SDS011;14732;51.074;3.788;2023-04-03T04:59:51;15.95;;;8.73;;
27225;SDS011;14732;51.074;3.788;2023-04-03T05:02:17;15.75;;;8.93;;
27225;SDS011;14732;51.074;3.788;2023-04-03T05:04:43;14.57;;;9.38;;
27225;SDS011;14732;51.074;3.788;2023-04-03T05:07:09;13.60;;;9.32;;
27225;SDS011;14732;51.074;3.788;2023-04-03T05:09:34;14.50;;;9.63;;
27225;SDS011;14732;51.074;3.788;2023-04-03T05:12:00;18.85;;;10.07;;
27225;SDS011;14732;51.074;3.788;2023-04-03T05:14:27;17.27;;;9.18;;
27225;SDS011;14732;51.074;3.788;2023-04-03T05:16:53;13.45;;;8.63;;
27225;SDS011;14732;51.074;3.788;2023-04-03T05:19:19;13.15;;;9.55;;
27225;SDS011;14732;51.074;3.788;2023-04-03T05:21:45;15.32;;;9.02;;
27225;SDS011;14732;51.074;3.788;2023-04-03T05:24:12;15.18;;;9.30;;
27225;SDS011;14732;51.074;3.788;2023-04-03T05:26:38;17.08;;;9.75;;
27225;SDS011;14732;51.074;3.788;2023-04-03T05:29:03;22.98;;;10.43;;
27225;SDS011;14732;51.074;3.788;2023-04-03T05:31:29;17.17;;;9.85;;
27225;SDS011;14732;51.074;3.788;2023-04-03T05:33:55;17.55;;;9.60;;
27225;SDS011;14732;51.074;3.788;2023-04-03T05:36:21;19.35;;;11.23;;
27225;SDS011;14732;51.074;3.788;2023-04-03T05:38:47;19.15;;;10.98;;
27225;SDS011;14732;51.074;3.788;2023-04-03T05:41:13;16.70;;;10.90;;
27225;SDS011;14732;51.074;3.788;2023-04-03T05:43:40;23.38;;;12.68;;
27225;SDS011;14732;51.074;3.788;2023-04-03T05:46:13;16.95;;;11.43;;
27225;SDS011;14732;51.074;3.788;2023-04-03T05:48:40;18.30;;;10.68;;
27225;SDS011;14732;51.074;3.788;2023-04-03T05:51:07;17.02;;;10.40;;
27225;SDS011;14732;51.074;3.788;2023-04-03T05:53:43;16.80;;;11.25;;
27225;SDS011;14732;51.074;3.788;2023-04-03T05:56:10;21.60;;;11.45;;
27225;SDS011;14732;51.074;3.788;2023-04-03T05:58:35;17.88;;;11.48;;
27225;SDS011;14732;51.074;3.788;2023-04-03T06:01:01;18.42;;;10.73;;
27225;SDS011;14732;51.074;3.788;2023-04-03T06:03:27;20.58;;;11.35;;
27225;SDS011;14732;51.074;3.788;2023-04-03T06:05:53;16.80;;;10.10;;
27225;SDS011;14732;51.074;3.788;2023-04-03T06:08:18;14.80;;;9.10;;
27225;SDS011;14732;51.074;3.788;2023-04-03T06:10:44;15.55;;;8.55;;
27225;SDS011;14732;51.074;3.788;2023-04-03T06:13:10;17.95;;;8.38;;
27225;SDS011;14732;51.074;3.788;2023-04-03T06:15:37;12.30;;;8.30;;
27225;SDS011;14732;51.074;3.788;2023-04-03T06:18:03;10.77;;;7.28;;
27225;SDS011;14732;51.074;3.788;2023-04-03T06:20:29;10.95;;;6.65;;
27225;SDS011;14732;51.074;3.788;2023-04-03T06:22:56;14.30;;;6.70;;
27225;SDS011;14732;51.074;3.788;2023-04-03T06:25:22;10.85;;;6.15;;
27225;SDS011;14732;51.074;3.788;2023-04-03T06:27:47;9.75;;;5.75;;
27225;SDS011;14732;51.074;3.788;2023-04-03T06:30:13;12.68;;;6.20;;
27225;SDS011;14732;51.074;3.788;2023-04-03T06:32:39;13.07;;;6.90;;
27225;SDS011;14732;51.074;3.788;2023-04-03T06:35:05;10.20;;;6.05;;
27225;SDS011;14732;51.074;3.788;2023-04-03T06:37:31;9.02;;;6.47;;
27225;SDS011;14732;51.074;3.788;2023-04-03T06:39:57;9.60;;;6.18;;
27225;SDS011;14732;51.074;3.788;2023-04-03T06:42:25;11.23;;;6.20;;
27225;SDS011;14732;51.074;3.788;2023-04-03T06:44:51;7.00;;;5.80;;
27225;SDS011;14732;51.074;3.788;2023-04-03T06:47:17;13.82;;;6.28;;
27225;SDS011;14732;51.074;3.788;2023-04-03T06:49:43;9.43;;;5.85;;
27225;SDS011;14732;51.074;3.788;2023-04-03T06:52:09;14.13;;;5.72;;
27225;SDS011;14732;51.074;3.788;2023-04-03T06:54:37;9.65;;;5.90;;
27225;SDS011;14732;51.074;3.788;2023-04-03T06:57:03;8.73;;;5.53;;
27225;SDS011;14732;51.074;3.788;2023-04-03T06:59:29;11.27;;;6.00;;
27225;SDS011;14732;51.074;3.788;2023-04-03T07:01:55;10.95;;;5.75;;
27225;SDS011;14732;51.074;3.788;2023-04-03T07:04:20;9.43;;;5.93;;
27225;SDS011;14732;51.074;3.788;2023-04-03T07:06:46;10.95;;;5.80;;
27225;SDS011;14732;51.074;3.788;2023-04-03T07:09:13;15.77;;;5.95;;
27225;SDS011;14732;51.074;3.788;2023-04-03T07:11:39;11.43;;;6.50;;
27225;SDS011;14732;51.074;3.788;2023-04-03T07:14:05;8.00;;;5.80;;
27225;SDS011;14732;51.074;3.788;2023-04-03T07:16:33;10.10;;;5.80;;
27225;SDS011;14732;51.074;3.788;2023-04-03T07:18:59;9.35;;;6.00;;
27225;SDS011;14732;51.074;3.788;2023-04-03T07:21:25;11.85;;;5.68;;
27225;SDS011;14732;51.074;3.788;2023-04-03T07:23:51;8.98;;;5.68;;
27225;SDS011;14732;51.074;3.788;2023-04-03T07:26:16;9.70;;;5.80;;
27225;SDS011;14732;51.074;3.788;2023-04-03T07:28:42;10.50;;;6.05;;
27225;SDS011;14732;51.074;3.788;2023-04-03T07:31:12;8.40;;;5.20;;
27225;SDS011;14732;51.074;3.788;2023-04-03T07:33:41;10.38;;;5.80;;
27225;SDS011;14732;51.074;3.788;2023-04-03T07:36:09;6.28;;;5.45;;
27225;SDS011;14732;51.074;3.788;2023-04-03T07:38:39;7.13;;;5.38;;
27225;SDS011;14732;51.074;3.788;2023-04-03T07:41:05;10.52;;;5.43;;
27225;SDS011;14732;51.074;3.788;2023-04-03T07:43:31;11.90;;;5.03;;
27225;SDS011;14732;51.074;3.788;2023-04-03T07:45:57;9.98;;;5.25;;
27225;SDS011;14732;51.074;3.788;2023-04-03T07:48:24;10.30;;;5.30;;
27225;SDS011;14732;51.074;3.788;2023-04-03T07:50:50;11.00;;;5.30;;
27225;SDS011;14732;51.074;3.788;2023-04-03T07:53:17;7.78;;;5.10;;
27225;SDS011;14732;51.074;3.788;2023-04-03T07:55:43;8.85;;;5.50;;
27225;SDS011;14732;51.074;3.788;2023-04-03T07:58:12;8.60;;;5.70;;
27225;SDS011;14732;51.074;3.788;2023-04-03T08:00:39;9.48;;;5.53;;
27225;SDS011;14732;51.074;3.788;2023-04-03T08:03:06;8.68;;;5.53;;
27225;SDS011;14732;51.074;3.788;2023-04-03T08:05:37;8.77;;;5.20;;
27225;SDS011;14732;51.074;3.788;2023-04-03T08:08:05;7.47;;;5.15;;
27225;SDS011;14732;51.074;3.788;2023-04-03T08:10:32;9.07;;;5.32;;
27225;SDS011;14732;51.074;3.788;2023-04-03T08:12:58;9.50;;;5.00;;
27225;SDS011;14732;51.074;3.788;2023-04-03T08:15:23;10.05;;;4.55;;
27225;SDS011;14732;51.074;3.788;2023-04-03T08:17:49;5.45;;;4.82;;
27225;SDS011;14732;51.074;3.788;2023-04-03T08:20:15;7.60;;;4.63;;
27225;SDS011;14732;51.074;3.788;2023-04-03T08:22:42;5.60;;;4.70;;
27225;SDS011;14732;51.074;3.788;2023-04-03T08:25:08;9.80;;;5.28;;
27225;SDS011;14732;51.074;3.788;2023-04-03T08:27:34;8.68;;;4.85;;
27225;SDS011;14732;51.074;3.788;2023-04-03T08:29:59;7.03;;;4.88;;
27225;SDS011;14732;51.074;3.788;2023-04-03T08:32:25;6.80;;;4.97;;
27225;SDS011;14732;51.074;3.788;2023-04-03T08:34:52;7.25;;;4.45;;
27225;SDS011;14732;51.074;3.788;2023-04-03T08:37:17;8.68;;;4.60;;
27225;SDS011;14732;51.074;3.788;2023-04-03T08:39:44;7.03;;;4.70;;
27225;SDS011;14732;51.074;3.788;2023-04-03T08:42:23;7.65;;;4.45;;
27225;SDS011;14732;51.074;3.788;2023-04-03T08:45:21;7.47;;;4.00;;
27225;SDS011;14732;51.074;3.788;2023-04-03T08:48:00;7.63;;;3.83;;
27225;SDS011;14732;51.074;3.788;2023-04-03T08:50:42;6.13;;;3.47;;
27225;SDS011;14732;51.074;3.788;2023-04-03T08:53:15;6.57;;;3.45;;
27225;SDS011;14732;51.074;3.788;2023-04-03T08:55:51;5.63;;;3.70;;
27225;SDS011;14732;51.074;3.788;2023-04-03T08:58:22;6.38;;;3.08;;
27225;SDS011;14732;51.074;3.788;2023-04-03T09:03:29;8.48;;;3.95;;
27225;SDS011;14732;51.074;3.788;2023-04-03T09:05:59;3.60;;;2.40;;
27225;SDS011;14732;51.074;3.788;2023-04-03T09:17:02;6.13;;;3.40;;
27225;SDS011;14732;51.074;3.788;2023-04-03T09:22:11;5.28;;;2.78;;
27225;SDS011;14732;51.074;3.788;2023-04-03T09:24:39;4.05;;;2.88;;
27225;SDS011;14732;51.074;3.788;2023-04-03T09:27:07;3.53;;;2.30;;
27225;SDS011;14732;51.074;3.788;2023-04-03T09:29:37;3.38;;;2.50;;
27225;SDS011;14732;51.074;3.788;2023-04-03T09:34:52;3.78;;;2.25;;
27225;SDS011;14732;51.074;3.788;2023-04-03T09:40:36;5.07;;;2.33;;
27225;SDS011;14732;51.074;3.788;2023-04-03T09:43:22;7.57;;;2.42;;
27225;SDS011;14732;51.074;3.788;2023-04-03T09:45:53;7.32;;;2.45;;
27225;SDS011;14732;51.074;3.788;2023-04-03T09:48:21;4.50;;;2.40;;
27225;SDS011;14732;51.074;3.788;2023-04-03T09:56:27;6.50;;;2.20;;
27225;SDS011;14732;51.074;3.788;2023-04-03T10:06:48;7.38;;;2.47;;
27225;SDS011;14732;51.074;3.788;2023-04-03T10:09:21;6.65;;;2.58;;
27225;SDS011;14732;51.074;3.788;2023-04-03T10:12:05;3.78;;;2.58;;
27225;SDS011;14732;51.074;3.788;2023-04-03T10:19:52;3.60;;;2.08;;
27225;SDS011;14732;51.074;3.788;2023-04-03T10:22:25;3.63;;;2.10;;
27225;SDS011;14732;51.074;3.788;2023-04-03T10:30:40;4.00;;;1.95;;
27225;SDS011;14732;51.074;3.788;2023-04-03T10:45:01;3.95;;;1.23;;
27225;SDS011;14732;51.074;3.788;2023-04-03T10:47:46;3.38;;;1.40;;
27225;SDS011;14732;51.074;3.788;2023-04-03T10:50:37;4.22;;;1.65;;
27225;SDS011;14732;51.074;3.788;2023-04-03T10:58:44;4.65;;;1.42;;
27225;SDS011;14732;51.074;3.788;2023-04-03T11:01:18;3.97;;;1.30;;
27225;SDS011;14732;51.074;3.788;2023-04-03T11:04:03;4.47;;;1.38;;
27225;SDS011;14732;51.074;3.788;2023-04-03T11:06:35;5.72;;;1.50;;
27225;SDS011;14732;51.074;3.788;2023-04-03T11:09:18;3.70;;;1.20;;
27225;SDS011;14732;51.074;3.788;2023-04-03T11:11:49;2.53;;;1.25;;
27225;SDS011;14732;51.074;3.788;2023-04-03T11:14:28;1.77;;;1.20;;
27225;SDS011;14732;51.074;3.788;2023-04-03T11:22:43;3.45;;;1.30;;
27225;SDS011;14732;51.074;3.788;2023-04-03T11:25:15;3.28;;;1.40;;
27225;SDS011;14732;51.074;3.788;2023-04-03T11:27:59;3.78;;;1.10;;
27225;SDS011;14732;51.074;3.788;2023-04-03T11:30:28;4.30;;;1.17;;
27225;SDS011;14732;51.074;3.788;2023-04-03T11:35:43;2.17;;;1.13;;
27225;SDS011;14732;51.074;3.788;2023-04-03T11:38:14;2.42;;;1.15;;
27225;SDS011;14732;51.074;3.788;2023-04-03T11:41:04;1.92;;;0.77;;
27225;SDS011;14732;51.074;3.788;2023-04-03T11:43:32;2.10;;;1.00;;
27225;SDS011;14732;51.074;3.788;2023-04-03T11:45:59;2.28;;;1.15;;
27225;SDS011;14732;51.074;3.788;2023-04-03T11:51:37;2.38;;;1.10;;
27225;SDS011;14732;51.074;3.788;2023-04-03T11:53:54;2.60;;;0.93;;
27225;SDS011;14732;51.074;3.788;2023-04-03T11:56:58;2.38;;;1.20;;
27225;SDS011;14732;51.074;3.788;2023-04-03T11:59:24;1.75;;;0.88;;
27225;SDS011;14732;51.074;3.788;2023-04-03T12:01:56;2.85;;;1.00;;
27225;SDS011;14732;51.074;3.788;2023-04-03T12:04:24;1.90;;;1.00;;
27225;SDS011;14732;51.074;3.788;2023-04-03T12:06:53;1.73;;;0.90;;
27225;SDS011;14732;51.074;3.788;2023-04-03T12:11:57;2.58;;;1.20;;
27225;SDS011;14732;51.074;3.788;2023-04-03T12:14:25;6.97;;;1.30;;
27225;SDS011;14732;51.074;3.788;2023-04-03T12:16:55;3.30;;;1.30;;
27225;SDS011;14732;51.074;3.788;2023-04-03T12:19:33;5.10;;;1.55;;
27225;SDS011;14732;51.074;3.788;2023-04-03T12:24:35;3.90;;;1.23;;
27225;SDS011;14732;51.074;3.788;2023-04-03T12:27:07;3.40;;;1.20;;
27225;SDS011;14732;51.074;3.788;2023-04-03T12:46:25;4.60;;;1.35;;
27225;SDS011;14732;51.074;3.788;2023-04-03T12:49:00;3.60;;;1.10;;
27225;SDS011;14732;51.074;3.788;2023-04-03T12:53:52;1.90;;;1.10;;
27225;SDS011;14732;51.074;3.788;2023-04-03T12:56:40;5.78;;;1.10;;
27225;SDS011;14732;51.074;3.788;2023-04-03T12:59:13;2.15;;;0.90;;
27225;SDS011;14732;51.074;3.788;2023-04-03T13:01:54;2.15;;;1.30;;
27225;SDS011;14732;51.074;3.788;2023-04-03T13:04:24;1.83;;;1.00;;
27225;SDS011;14732;51.074;3.788;2023-04-03T13:06:52;2.50;;;1.15;;
27225;SDS011;14732;51.074;3.788;2023-04-03T13:09:25;5.78;;;1.27;;
27225;SDS011;14732;51.074;3.788;2023-04-03T13:12:03;1.98;;;1.08;;
27225;SDS011;14732;51.074;3.788;2023-04-03T13:14:38;3.00;;;1.20;;
27225;SDS011;14732;51.074;3.788;2023-04-03T13:19:39;2.60;;;1.00;;
27225;SDS011;14732;51.074;3.788;2023-04-03T13:25:05;6.03;;;1.27;;
27225;SDS011;14732;51.074;3.788;2023-04-03T13:27:32;1.85;;;0.82;;
27225;SDS011;14732;51.074;3.788;2023-04-03T13:29:59;1.48;;;0.80;;
27225;SDS011;14732;51.074;3.788;2023-04-03T13:32:28;4.43;;;1.10;;
27225;SDS011;14732;51.074;3.788;2023-04-03T13:34:56;2.17;;;1.00;;
27225;SDS011;14732;51.074;3.788;2023-04-03T13:37:32;4.38;;;1.02;;
27225;SDS011;14732;51.074;3.788;2023-04-03T13:40:10;0.95;;;0.75;;
27225;SDS011;14732;51.074;3.788;2023-04-03T13:42:38;3.03;;;0.80;;
27225;SDS011;14732;51.074;3.788;2023-04-03T13:45:10;3.73;;;0.70;;
27225;SDS011;14732;51.074;3.788;2023-04-03T13:47:40;2.90;;;0.77;;
27225;SDS011;14732;51.074;3.788;2023-04-03T13:52:44;1.90;;;0.85;;
27225;SDS011;14732;51.074;3.788;2023-04-03T13:57:56;3.60;;;0.90;;
27225;SDS011;14732;51.074;3.788;2023-04-03T14:03:24;2.65;;;1.10;;
27225;SDS011;14732;51.074;3.788;2023-04-03T14:05:53;4.07;;;1.10;;
27225;SDS011;14732;51.074;3.788;2023-04-03T14:08:19;0.95;;;0.70;;
27225;SDS011;14732;51.074;3.788;2023-04-03T14:10:46;1.83;;;0.90;;
27225;SDS011;14732;51.074;3.788;2023-04-03T14:13:15;1.83;;;0.90;;
27225;SDS011;14732;51.074;3.788;2023-04-03T14:15:44;2.95;;;1.00;;
27225;SDS011;14732;51.074;3.788;2023-04-03T14:18:13;1.83;;;0.90;;
27225;SDS011;14732;51.074;3.788;2023-04-03T14:20:41;2.95;;;0.80;;
27225;SDS011;14732;51.074;3.788;2023-04-03T14:23:07;1.48;;;0.90;;
27225;SDS011;14732;51.074;3.788;2023-04-03T14:25:32;1.10;;;0.82;;
27225;SDS011;14732;51.074;3.788;2023-04-03T14:27:59;3.17;;;0.90;;
27225;SDS011;14732;51.074;3.788;2023-04-03T14:32:53;3.95;;;1.15;;
27225;SDS011;14732;51.074;3.788;2023-04-03T14:35:19;1.05;;;0.90;;
27225;SDS011;14732;51.074;3.788;2023-04-03T14:37:46;1.27;;;0.90;;
27225;SDS011;14732;51.074;3.788;2023-04-03T14:40:18;3.67;;;0.90;;
27225;SDS011;14732;51.074;3.788;2023-04-03T14:42:46;2.55;;;0.95;;
27225;SDS011;14732;51.074;3.788;2023-04-03T14:45:13;2.03;;;1.00;;
27225;SDS011;14732;51.074;3.788;2023-04-03T14:48:02;2.58;;;0.93;;
27225;SDS011;14732;51.074;3.788;2023-04-03T14:50:27;3.03;;;1.00;;
27225;SDS011;14732;51.074;3.788;2023-04-03T14:52:55;2.10;;;0.90;;
27225;SDS011;14732;51.074;3.788;2023-04-03T14:55:23;7.93;;;0.93;;
27225;SDS011;14732;51.074;3.788;2023-04-03T14:57:49;3.10;;;1.10;;
27225;SDS011;14732;51.074;3.788;2023-04-03T15:00:16;2.72;;;1.42;;
27225;SDS011;14732;51.074;3.788;2023-04-03T15:02:44;2.10;;;1.02;;
27225;SDS011;14732;51.074;3.788;2023-04-03T15:05:10;2.08;;;0.98;;
27225;SDS011;14732;51.074;3.788;2023-04-03T15:07:41;1.30;;;0.88;;
27225;SDS011;14732;51.074;3.788;2023-04-03T15:10:33;2.20;;;0.90;;
27225;SDS011;14732;51.074;3.788;2023-04-03T15:12:59;2.65;;;1.15;;
27225;SDS011;14732;51.074;3.788;2023-04-03T15:15:27;1.40;;;0.80;;
27225;SDS011;14732;51.074;3.788;2023-04-03T15:17:55;2.47;;;0.90;;
27225;SDS011;14732;51.074;3.788;2023-04-03T15:20:26;5.03;;;1.10;;
27225;SDS011;14732;51.074;3.788;2023-04-03T15:22:52;1.33;;;0.70;;
27225;SDS011;14732;51.074;3.788;2023-04-03T15:25:18;2.53;;;0.95;;
27225;SDS011;14732;51.074;3.788;2023-04-03T15:27:44;2.55;;;1.17;;
27225;SDS011;14732;51.074;3.788;2023-04-03T15:30:15;2.47;;;0.95;;
27225;SDS011;14732;51.074;3.788;2023-04-03T15:32:42;1.92;;;0.70;;
27225;SDS011;14732;51.074;3.788;2023-04-03T15:35:08;2.28;;;0.90;;
27225;SDS011;14732;51.074;3.788;2023-04-03T15:37:33;2.65;;;1.02;;
27225;SDS011;14732;51.074;3.788;2023-04-03T15:39:59;1.45;;;0.93;;
27225;SDS011;14732;51.074;3.788;2023-04-03T15:42:25;3.95;;;0.90;;
27225;SDS011;14732;51.074;3.788;2023-04-03T15:44:51;1.50;;;0.90;;
27225;SDS011;14732;51.074;3.788;2023-04-03T15:47:16;6.88;;;1.05;;
27225;SDS011;14732;51.074;3.788;2023-04-03T15:49:42;1.90;;;0.80;;
27225;SDS011;14732;51.074;3.788;2023-04-03T15:52:08;3.53;;;0.70;;
27225;SDS011;14732;51.074;3.788;2023-04-03T15:54:34;2.13;;;0.73;;
27225;SDS011;14732;51.074;3.788;2023-04-03T15:57:00;1.88;;;0.80;;
27225;SDS011;14732;51.074;3.788;2023-04-03T15:59:25;0.93;;;0.70;;
27225;SDS011;14732;51.074;3.788;2023-04-03T16:01:51;2.60;;;0.90;;
27225;SDS011;14732;51.074;3.788;2023-04-03T16:04:18;1.20;;;0.70;;
27225;SDS011;14732;51.074;3.788;2023-04-03T16:06:45;1.27;;;0.77;;
27225;SDS011;14732;51.074;3.788;2023-04-03T16:09:11;2.35;;;0.98;;
27225;SDS011;14732;51.074;3.788;2023-04-03T16:11:37;1.00;;;0.77;;
27225;SDS011;14732;51.074;3.788;2023-04-03T16:14:09;2.20;;;0.98;;
27225;SDS011;14732;51.074;3.788;2023-04-03T16:16:35;3.33;;;1.00;;
27225;SDS011;14732;51.074;3.788;2023-04-03T16:19:01;4.68;;;0.85;;
27225;SDS011;14732;51.074;3.788;2023-04-03T16:21:27;3.03;;;1.00;;
27225;SDS011;14732;51.074;3.788;2023-04-03T16:23:55;2.20;;;0.88;;
27225;SDS011;14732;51.074;3.788;2023-04-03T16:26:23;1.15;;;0.68;;
27225;SDS011;14732;51.074;3.788;2023-04-03T16:28:48;1.73;;;0.73;;
27225;SDS011;14732;51.074;3.788;2023-04-03T16:31:14;2.28;;;0.88;;
27225;SDS011;14732;51.074;3.788;2023-04-03T16:33:40;3.33;;;0.90;;
27225;SDS011;14732;51.074;3.788;2023-04-03T16:36:06;2.10;;;0.88;;
27225;SDS011;14732;51.074;3.788;2023-04-03T16:38:32;2.92;;;1.40;;
27225;SDS011;14732;51.074;3.788;2023-04-03T16:40:58;1.85;;;0.98;;
27225;SDS011;14732;51.074;3.788;2023-04-03T16:43:27;2.72;;;1.00;;
27225;SDS011;14732;51.074;3.788;2023-04-03T16:45:53;1.48;;;0.90;;